Divide, Colorado
Current Conditions -  °F | °C
As of 6:58 PM on Wednesday 26 Nov 2014 (Local Time) from KAFF Reporting Station
Clear Clear  
Wind Chill: 19°   Ceiling: Unl
Heat Index: 27°   Visibility: 10mi
Dew Point: 23°   Wind: 7mph
Humidity: 85%   Direction: 360°N
Pressure: 30.27"   Gusts: NA
Location:  38.94°N, 105.16°W
Report Text: KAFF 270158Z AUTO 36006KT 10SM CLR M03/M05 A3027 RMK AO2 SLP292 T10301052
Loading
Personal Weather Stations






























Interactive Weather Map New forecast layout! Learn more

10-Day Weather Forecast

Advertisements
Track Severe Weather on mobile